Airfield :
LOGIN :

Register | Disclaimer

   EN    FR    IT 

 










Legend :    VFR   Marginal VFR   IFR   Intensive IFR   Very Intensive IFR
Visi :
Ceiling :
>= 8 km
>= 3000ft
5 to 8 km
1000 to 3000 ft
1500m to 5 km
500 to 1000 ft
800 to 1500m
200 to 500 ft
< 800m
< 200 ft
Symbols :   Thunderstorms  Fog  Heavy snow  Heavy precipitations  Wind > 20 kt
SIGMETs :     Misc.  Thunderstorms  Icing  Turbulence  Mountain Waves  Volcanic Ashes







- Airport Elevation : 1568 ft


ETSB - Büchel AB

CURRENT METAR :
  • 232320Z AUTO 22012KT 8000 // ////// 09/09 Q1010 ///

EXPIRED METARs :
  • 232220Z AUTO 23009KT 9999 // ////// 10/09 Q1010 ///
  • 232120Z AUTO 22010KT 7000 // ////// 10/09 Q1010 ///
  • 232105Z 22009KT 9999 -RA FEW003 BKN008 BKN015 10/09 Q1010 GRN FCST CANCEL

TAF TAF ETSB
Valid from the 23 at 21:00 until the 24 at 03:00 UTC


232107Z 2321/2403 23010G20KT 8000 NSW FEW006 BKN012
TEMPO 2321/2403 24015G30KT 3000 SHRA BKN006 OVC012 CANCEL 2115 BY ETGL
No reported NOTAMs for that airfield.



MET'MAP, your aeronautical weather chart ! - Copyright ORBIFLY December 2007 - Disclaimer

ORBIFLY MET'MAP TEAM :

Programming & Development : Alexandra Zaïnal
Concept & Development : Baudouin d'Aumeries
Co-Development & Prog : Marc-Olivier Méhu
Technical & hardware support : Manuel Goepfert

Contact : metmap@orbifly.com




SOURCES & CREDITS :

   NOAA